sensor_id;sensor_type;location;lat;lon;timestamp;P1;durP1;ratioP1;P2;durP2;ratioP2
35578;SDS011;21687;48.900;9.188;2023-05-15T00:01:02;7.43;;;6.63;;
35578;SDS011;21687;48.900;9.188;2023-05-15T00:03:29;7.47;;;6.77;;
35578;SDS011;21687;48.900;9.188;2023-05-15T00:05:55;7.57;;;6.27;;
35578;SDS011;21687;48.900;9.188;2023-05-15T00:08:21;8.43;;;6.93;;
35578;SDS011;21687;48.900;9.188;2023-05-15T00:10:48;7.20;;;6.33;;
35578;SDS011;21687;48.900;9.188;2023-05-15T00:13:16;9.43;;;7.20;;
35578;SDS011;21687;48.900;9.188;2023-05-15T00:15:43;8.33;;;7.20;;
35578;SDS011;21687;48.900;9.188;2023-05-15T00:18:09;8.47;;;7.40;;
35578;SDS011;21687;48.900;9.188;2023-05-15T00:20:35;8.40;;;6.60;;
35578;SDS011;21687;48.900;9.188;2023-05-15T00:23:01;9.53;;;6.83;;
35578;SDS011;21687;48.900;9.188;2023-05-15T00:25:27;7.47;;;6.70;;
35578;SDS011;21687;48.900;9.188;2023-05-15T00:27:54;7.97;;;6.83;;
35578;SDS011;21687;48.900;9.188;2023-05-15T00:30:20;7.03;;;6.33;;
35578;SDS011;21687;48.900;9.188;2023-05-15T00:32:47;7.70;;;6.50;;
35578;SDS011;21687;48.900;9.188;2023-05-15T00:35:13;7.57;;;6.33;;
35578;SDS011;21687;48.900;9.188;2023-05-15T00:37:39;6.87;;;6.10;;
35578;SDS011;21687;48.900;9.188;2023-05-15T00:40:06;6.90;;;6.20;;
35578;SDS011;21687;48.900;9.188;2023-05-15T00:42:35;10.57;;;6.83;;
35578;SDS011;21687;48.900;9.188;2023-05-15T00:45:02;7.10;;;6.37;;
35578;SDS011;21687;48.900;9.188;2023-05-15T00:47:32;6.87;;;6.13;;
35578;SDS011;21687;48.900;9.188;2023-05-15T00:49:59;6.40;;;5.80;;
35578;SDS011;21687;48.900;9.188;2023-05-15T00:52:27;7.37;;;6.00;;
35578;SDS011;21687;48.900;9.188;2023-05-15T00:54:55;6.47;;;5.87;;
35578;SDS011;21687;48.900;9.188;2023-05-15T00:57:21;7.30;;;6.20;;
35578;SDS011;21687;48.900;9.188;2023-05-15T00:59:50;6.53;;;5.93;;
35578;SDS011;21687;48.900;9.188;2023-05-15T01:02:17;7.07;;;6.00;;
35578;SDS011;21687;48.900;9.188;2023-05-15T01:04:45;8.00;;;6.63;;
35578;SDS011;21687;48.900;9.188;2023-05-15T01:07:11;7.47;;;6.60;;
35578;SDS011;21687;48.900;9.188;2023-05-15T01:09:39;7.97;;;7.13;;
35578;SDS011;21687;48.900;9.188;2023-05-15T01:12:09;10.07;;;7.13;;
35578;SDS011;21687;48.900;9.188;2023-05-15T01:14:38;7.50;;;6.77;;
35578;SDS011;21687;48.900;9.188;2023-05-15T01:17:04;7.20;;;6.50;;
35578;SDS011;21687;48.900;9.188;2023-05-15T01:19:31;7.70;;;6.90;;
35578;SDS011;21687;48.900;9.188;2023-05-15T01:22:40;7.77;;;6.33;;
35578;SDS011;21687;48.900;9.188;2023-05-15T01:27:44;7.30;;;6.33;;
35578;SDS011;21687;48.900;9.188;2023-05-15T01:30:31;8.23;;;6.60;;
35578;SDS011;21687;48.900;9.188;2023-05-15T01:33:05;9.67;;;7.03;;
35578;SDS011;21687;48.900;9.188;2023-05-15T01:35:45;7.70;;;6.90;;
35578;SDS011;21687;48.900;9.188;2023-05-15T01:38:22;7.70;;;6.37;;
35578;SDS011;21687;48.900;9.188;2023-05-15T01:41:17;8.37;;;6.50;;
35578;SDS011;21687;48.900;9.188;2023-05-15T01:43:49;7.83;;;6.10;;
35578;SDS011;21687;48.900;9.188;2023-05-15T01:46:21;6.47;;;5.87;;
35578;SDS011;21687;48.900;9.188;2023-05-15T01:48:49;8.63;;;5.93;;
35578;SDS011;21687;48.900;9.188;2023-05-15T01:51:16;8.33;;;6.50;;
35578;SDS011;21687;48.900;9.188;2023-05-15T01:53:44;7.10;;;6.33;;
35578;SDS011;21687;48.900;9.188;2023-05-15T01:56:12;9.07;;;5.90;;
35578;SDS011;21687;48.900;9.188;2023-05-15T01:58:40;6.80;;;6.10;;
35578;SDS011;21687;48.900;9.188;2023-05-15T02:01:08;7.33;;;6.23;;
35578;SDS011;21687;48.900;9.188;2023-05-15T02:03:35;6.83;;;6.13;;
35578;SDS011;21687;48.900;9.188;2023-05-15T02:06:02;6.57;;;5.97;;
35578;SDS011;21687;48.900;9.188;2023-05-15T02:08:30;7.53;;;6.20;;
35578;SDS011;21687;48.900;9.188;2023-05-15T02:10:58;8.83;;;6.77;;
35578;SDS011;21687;48.900;9.188;2023-05-15T02:13:26;6.90;;;6.20;;
35578;SDS011;21687;48.900;9.188;2023-05-15T02:15:54;7.27;;;6.50;;
35578;SDS011;21687;48.900;9.188;2023-05-15T02:18:21;6.70;;;6.00;;
35578;SDS011;21687;48.900;9.188;2023-05-15T02:20:47;9.10;;;6.97;;
35578;SDS011;21687;48.900;9.188;2023-05-15T02:23:14;6.97;;;6.27;;
35578;SDS011;21687;48.900;9.188;2023-05-15T02:28:06;12.60;;;7.27;;
35578;SDS011;21687;48.900;9.188;2023-05-15T02:30:48;6.80;;;6.20;;
35578;SDS011;21687;48.900;9.188;2023-05-15T02:33:27;6.77;;;6.17;;
35578;SDS011;21687;48.900;9.188;2023-05-15T02:36:18;7.00;;;6.30;;
35578;SDS011;21687;48.900;9.188;2023-05-15T02:38:48;8.77;;;6.80;;
35578;SDS011;21687;48.900;9.188;2023-05-15T02:41:16;7.50;;;6.80;;
35578;SDS011;21687;48.900;9.188;2023-05-15T02:43:43;6.83;;;6.13;;
35578;SDS011;21687;48.900;9.188;2023-05-15T02:46:13;7.23;;;6.53;;
35578;SDS011;21687;48.900;9.188;2023-05-15T02:48:40;7.37;;;6.57;;
35578;SDS011;21687;48.900;9.188;2023-05-15T02:51:07;6.60;;;6.00;;
35578;SDS011;21687;48.900;9.188;2023-05-15T02:53:38;7.33;;;6.60;;
35578;SDS011;21687;48.900;9.188;2023-05-15T02:56:05;7.43;;;6.33;;
35578;SDS011;21687;48.900;9.188;2023-05-15T02:58:31;6.90;;;6.17;;
35578;SDS011;21687;48.900;9.188;2023-05-15T03:00:58;9.23;;;6.60;;
35578;SDS011;21687;48.900;9.188;2023-05-15T03:03:24;6.70;;;6.00;;
35578;SDS011;21687;48.900;9.188;2023-05-15T03:05:51;9.57;;;6.43;;
35578;SDS011;21687;48.900;9.188;2023-05-15T03:08:17;7.00;;;6.30;;
35578;SDS011;21687;48.900;9.188;2023-05-15T03:10:43;6.67;;;5.97;;
35578;SDS011;21687;48.900;9.188;2023-05-15T03:13:10;7.63;;;6.83;;
35578;SDS011;21687;48.900;9.188;2023-05-15T03:15:36;6.30;;;5.70;;
35578;SDS011;21687;48.900;9.188;2023-05-15T03:18:02;9.27;;;6.53;;
35578;SDS011;21687;48.900;9.188;2023-05-15T03:20:28;6.37;;;5.70;;
35578;SDS011;21687;48.900;9.188;2023-05-15T03:22:55;6.30;;;5.70;;
35578;SDS011;21687;48.900;9.188;2023-05-15T03:25:21;8.67;;;6.23;;
35578;SDS011;21687;48.900;9.188;2023-05-15T03:27:48;6.03;;;5.43;;
35578;SDS011;21687;48.900;9.188;2023-05-15T03:30:14;8.23;;;6.50;;
35578;SDS011;21687;48.900;9.188;2023-05-15T03:32:41;6.23;;;5.57;;
35578;SDS011;21687;48.900;9.188;2023-05-15T03:35:07;7.53;;;5.90;;
35578;SDS011;21687;48.900;9.188;2023-05-15T03:37:34;6.40;;;5.43;;
35578;SDS011;21687;48.900;9.188;2023-05-15T03:40:00;8.60;;;6.10;;
35578;SDS011;21687;48.900;9.188;2023-05-15T03:42:26;6.60;;;5.90;;
35578;SDS011;21687;48.900;9.188;2023-05-15T03:44:53;7.63;;;5.47;;
35578;SDS011;21687;48.900;9.188;2023-05-15T03:47:20;10.20;;;6.33;;
35578;SDS011;21687;48.900;9.188;2023-05-15T03:49:46;6.73;;;6.10;;
35578;SDS011;21687;48.900;9.188;2023-05-15T03:52:12;8.93;;;5.70;;
35578;SDS011;21687;48.900;9.188;2023-05-15T03:54:39;7.33;;;6.63;;
35578;SDS011;21687;48.900;9.188;2023-05-15T03:57:06;8.10;;;6.30;;
35578;SDS011;21687;48.900;9.188;2023-05-15T03:59:32;6.30;;;5.70;;
35578;SDS011;21687;48.900;9.188;2023-05-15T04:01:59;6.43;;;5.83;;
35578;SDS011;21687;48.900;9.188;2023-05-15T04:04:25;6.77;;;6.07;;
35578;SDS011;21687;48.900;9.188;2023-05-15T04:06:51;7.13;;;5.90;;
35578;SDS011;21687;48.900;9.188;2023-05-15T04:09:17;7.03;;;6.07;;
35578;SDS011;21687;48.900;9.188;2023-05-15T04:11:44;6.53;;;5.80;;
35578;SDS011;21687;48.900;9.188;2023-05-15T04:14:11;6.40;;;5.80;;
35578;SDS011;21687;48.900;9.188;2023-05-15T04:16:37;6.23;;;5.67;;
35578;SDS011;21687;48.900;9.188;2023-05-15T04:19:03;10.07;;;5.90;;
35578;SDS011;21687;48.900;9.188;2023-05-15T04:21:30;7.43;;;6.60;;
35578;SDS011;21687;48.900;9.188;2023-05-15T04:23:56;10.80;;;6.23;;
35578;SDS011;21687;48.900;9.188;2023-05-15T04:26:22;6.70;;;5.80;;
35578;SDS011;21687;48.900;9.188;2023-05-15T04:28:49;6.33;;;5.73;;
35578;SDS011;21687;48.900;9.188;2023-05-15T04:31:15;13.23;;;5.43;;
35578;SDS011;21687;48.900;9.188;2023-05-15T04:33:41;7.53;;;5.63;;
35578;SDS011;21687;48.900;9.188;2023-05-15T04:36:08;7.10;;;5.70;;
35578;SDS011;21687;48.900;9.188;2023-05-15T04:38:35;6.00;;;5.40;;
35578;SDS011;21687;48.900;9.188;2023-05-15T04:41:01;6.17;;;5.30;;
35578;SDS011;21687;48.900;9.188;2023-05-15T04:43:28;7.17;;;5.93;;
35578;SDS011;21687;48.900;9.188;2023-05-15T04:45:54;7.27;;;5.50;;
35578;SDS011;21687;48.900;9.188;2023-05-15T04:48:20;5.63;;;5.03;;
35578;SDS011;21687;48.900;9.188;2023-05-15T04:50:46;5.97;;;5.37;;
35578;SDS011;21687;48.900;9.188;2023-05-15T04:53:13;6.57;;;5.00;;
35578;SDS011;21687;48.900;9.188;2023-05-15T04:55:39;6.17;;;5.57;;
35578;SDS011;21687;48.900;9.188;2023-05-15T04:58:05;8.20;;;5.53;;
35578;SDS011;21687;48.900;9.188;2023-05-15T05:00:31;6.00;;;5.40;;
35578;SDS011;21687;48.900;9.188;2023-05-15T05:02:57;6.70;;;5.90;;
35578;SDS011;21687;48.900;9.188;2023-05-15T05:05:24;6.63;;;6.00;;
35578;SDS011;21687;48.900;9.188;2023-05-15T05:07:50;7.17;;;5.50;;
35578;SDS011;21687;48.900;9.188;2023-05-15T05:10:16;6.30;;;5.37;;
35578;SDS011;21687;48.900;9.188;2023-05-15T05:12:42;6.07;;;5.47;;
35578;SDS011;21687;48.900;9.188;2023-05-15T05:15:09;5.30;;;4.80;;
35578;SDS011;21687;48.900;9.188;2023-05-15T05:17:35;7.27;;;5.30;;
35578;SDS011;21687;48.900;9.188;2023-05-15T05:20:01;5.80;;;5.20;;
35578;SDS011;21687;48.900;9.188;2023-05-15T05:22:29;5.67;;;5.10;;
35578;SDS011;21687;48.900;9.188;2023-05-15T05:24:55;5.20;;;4.73;;
35578;SDS011;21687;48.900;9.188;2023-05-15T05:27:21;5.63;;;5.03;;
35578;SDS011;21687;48.900;9.188;2023-05-15T05:29:47;6.17;;;5.33;;
35578;SDS011;21687;48.900;9.188;2023-05-15T05:32:14;5.63;;;5.07;;
35578;SDS011;21687;48.900;9.188;2023-05-15T05:34:40;7.03;;;5.50;;
35578;SDS011;21687;48.900;9.188;2023-05-15T05:37:06;7.47;;;5.77;;
35578;SDS011;21687;48.900;9.188;2023-05-15T05:39:32;6.80;;;5.40;;
35578;SDS011;21687;48.900;9.188;2023-05-15T05:41:59;7.27;;;6.57;;
35578;SDS011;21687;48.900;9.188;2023-05-15T05:44:25;7.63;;;5.80;;
35578;SDS011;21687;48.900;9.188;2023-05-15T05:46:51;6.83;;;5.80;;
35578;SDS011;21687;48.900;9.188;2023-05-15T05:49:17;6.77;;;6.00;;
35578;SDS011;21687;48.900;9.188;2023-05-15T05:51:44;7.17;;;6.43;;
35578;SDS011;21687;48.900;9.188;2023-05-15T05:54:11;7.10;;;6.40;;
35578;SDS011;21687;48.900;9.188;2023-05-15T05:56:39;6.97;;;6.03;;
35578;SDS011;21687;48.900;9.188;2023-05-15T05:59:07;6.80;;;6.10;;
35578;SDS011;21687;48.900;9.188;2023-05-15T06:01:33;6.57;;;5.33;;
35578;SDS011;21687;48.900;9.188;2023-05-15T06:03:59;6.63;;;5.67;;
35578;SDS011;21687;48.900;9.188;2023-05-15T06:06:26;6.30;;;5.70;;
35578;SDS011;21687;48.900;9.188;2023-05-15T06:08:52;5.53;;;4.97;;
35578;SDS011;21687;48.900;9.188;2023-05-15T06:11:19;5.67;;;4.97;;
35578;SDS011;21687;48.900;9.188;2023-05-15T06:13:45;5.47;;;4.60;;
35578;SDS011;21687;48.900;9.188;2023-05-15T06:16:11;7.53;;;6.03;;
35578;SDS011;21687;48.900;9.188;2023-05-15T06:18:38;6.77;;;4.87;;
35578;SDS011;21687;48.900;9.188;2023-05-15T06:21:04;5.60;;;5.10;;
35578;SDS011;21687;48.900;9.188;2023-05-15T06:23:30;6.23;;;5.10;;
35578;SDS011;21687;48.900;9.188;2023-05-15T06:25:57;5.83;;;4.50;;
35578;SDS011;21687;48.900;9.188;2023-05-15T06:28:23;5.20;;;4.70;;
35578;SDS011;21687;48.900;9.188;2023-05-15T06:30:49;4.70;;;4.20;;
35578;SDS011;21687;48.900;9.188;2023-05-15T06:33:15;5.17;;;4.67;;
35578;SDS011;21687;48.900;9.188;2023-05-15T06:35:42;6.90;;;4.37;;
35578;SDS011;21687;48.900;9.188;2023-05-15T06:38:08;7.10;;;4.93;;
35578;SDS011;21687;48.900;9.188;2023-05-15T06:40:35;8.97;;;4.80;;
35578;SDS011;21687;48.900;9.188;2023-05-15T06:43:08;5.30;;;4.53;;
35578;SDS011;21687;48.900;9.188;2023-05-15T06:45:36;5.53;;;5.03;;
35578;SDS011;21687;48.900;9.188;2023-05-15T06:48:03;5.33;;;4.83;;
35578;SDS011;21687;48.900;9.188;2023-05-15T06:50:30;4.70;;;4.30;;
35578;SDS011;21687;48.900;9.188;2023-05-15T06:52:57;4.87;;;4.40;;
35578;SDS011;21687;48.900;9.188;2023-05-15T06:55:23;6.07;;;4.60;;
35578;SDS011;21687;48.900;9.188;2023-05-15T06:57:49;4.97;;;4.13;;
35578;SDS011;21687;48.900;9.188;2023-05-15T07:00:15;5.53;;;4.53;;
35578;SDS011;21687;48.900;9.188;2023-05-15T07:02:42;7.03;;;4.27;;
35578;SDS011;21687;48.900;9.188;2023-05-15T07:05:08;4.80;;;4.40;;
35578;SDS011;21687;48.900;9.188;2023-05-15T07:07:35;4.50;;;4.07;;
35578;SDS011;21687;48.900;9.188;2023-05-15T07:10:01;4.70;;;4.20;;
35578;SDS011;21687;48.900;9.188;2023-05-15T07:12:27;4.77;;;4.20;;
35578;SDS011;21687;48.900;9.188;2023-05-15T07:14:54;5.07;;;4.53;;
35578;SDS011;21687;48.900;9.188;2023-05-15T07:17:20;5.23;;;4.10;;
35578;SDS011;21687;48.900;9.188;2023-05-15T07:19:46;4.07;;;3.67;;
35578;SDS011;21687;48.900;9.188;2023-05-15T07:22:12;4.90;;;4.00;;
35578;SDS011;21687;48.900;9.188;2023-05-15T07:24:38;5.00;;;3.97;;
35578;SDS011;21687;48.900;9.188;2023-05-15T07:27:05;4.70;;;4.20;;
35578;SDS011;21687;48.900;9.188;2023-05-15T07:29:31;3.97;;;3.63;;
35578;SDS011;21687;48.900;9.188;2023-05-15T07:31:57;4.30;;;3.90;;
35578;SDS011;21687;48.900;9.188;2023-05-15T07:34:23;4.27;;;3.70;;
35578;SDS011;21687;48.900;9.188;2023-05-15T07:36:50;3.93;;;3.63;;
35578;SDS011;21687;48.900;9.188;2023-05-15T07:39:16;4.47;;;3.43;;
35578;SDS011;21687;48.900;9.188;2023-05-15T07:41:42;3.53;;;3.20;;
35578;SDS011;21687;48.900;9.188;2023-05-15T07:44:10;3.17;;;2.87;;
35578;SDS011;21687;48.900;9.188;2023-05-15T07:46:37;4.17;;;3.47;;
35578;SDS011;21687;48.900;9.188;2023-05-15T07:49:03;3.10;;;2.90;;
35578;SDS011;21687;48.900;9.188;2023-05-15T07:51:29;4.43;;;3.43;;
35578;SDS011;21687;48.900;9.188;2023-05-15T07:53:56;3.20;;;2.90;;
35578;SDS011;21687;48.900;9.188;2023-05-15T07:56:22;3.40;;;3.10;;
35578;SDS011;21687;48.900;9.188;2023-05-15T07:58:49;4.13;;;3.00;;
35578;SDS011;21687;48.900;9.188;2023-05-15T08:01:15;3.40;;;3.10;;
35578;SDS011;21687;48.900;9.188;2023-05-15T08:03:42;3.30;;;3.03;;
35578;SDS011;21687;48.900;9.188;2023-05-15T08:06:18;3.63;;;2.80;;
35578;SDS011;21687;48.900;9.188;2023-05-15T08:08:44;3.83;;;2.90;;
35578;SDS011;21687;48.900;9.188;2023-05-15T08:11:19;3.07;;;2.80;;
35578;SDS011;21687;48.900;9.188;2023-05-15T08:13:46;3.77;;;3.10;;
35578;SDS011;21687;48.900;9.188;2023-05-15T08:16:13;3.13;;;2.87;;
35578;SDS011;21687;48.900;9.188;2023-05-15T08:18:39;3.07;;;2.70;;
35578;SDS011;21687;48.900;9.188;2023-05-15T08:21:05;3.10;;;2.90;;
35578;SDS011;21687;48.900;9.188;2023-05-15T08:23:32;4.57;;;3.03;;
35578;SDS011;21687;48.900;9.188;2023-05-15T08:25:58;4.10;;;3.03;;
35578;SDS011;21687;48.900;9.188;2023-05-15T08:28:24;3.00;;;2.80;;
35578;SDS011;21687;48.900;9.188;2023-05-15T08:30:50;4.93;;;3.13;;
35578;SDS011;21687;48.900;9.188;2023-05-15T08:33:17;3.30;;;2.90;;
35578;SDS011;21687;48.900;9.188;2023-05-15T08:35:43;3.87;;;3.03;;
35578;SDS011;21687;48.900;9.188;2023-05-15T08:38:10;3.70;;;2.67;;
35578;SDS011;21687;48.900;9.188;2023-05-15T08:40:36;4.80;;;2.83;;
35578;SDS011;21687;48.900;9.188;2023-05-15T08:43:04;3.30;;;3.00;;
35578;SDS011;21687;48.900;9.188;2023-05-15T08:45:37;3.10;;;2.80;;
35578;SDS011;21687;48.900;9.188;2023-05-15T08:48:07;3.50;;;3.20;;
35578;SDS011;21687;48.900;9.188;2023-05-15T08:50:37;3.53;;;2.80;;
35578;SDS011;21687;48.900;9.188;2023-05-15T08:53:04;3.70;;;3.40;;
35578;SDS011;21687;48.900;9.188;2023-05-15T08:55:31;3.07;;;2.80;;
35578;SDS011;21687;48.900;9.188;2023-05-15T08:57:57;3.27;;;3.00;;
35578;SDS011;21687;48.900;9.188;2023-05-15T09:00:24;3.40;;;3.20;;
35578;SDS011;21687;48.900;9.188;2023-05-15T09:02:52;3.47;;;3.17;;
35578;SDS011;21687;48.900;9.188;2023-05-15T09:05:19;2.97;;;2.77;;
35578;SDS011;21687;48.900;9.188;2023-05-15T09:07:46;4.30;;;2.50;;
35578;SDS011;21687;48.900;9.188;2023-05-15T09:10:15;3.87;;;3.17;;
35578;SDS011;21687;48.900;9.188;2023-05-15T09:12:43;3.30;;;3.00;;
35578;SDS011;21687;48.900;9.188;2023-05-15T09:15:13;3.77;;;3.10;;
35578;SDS011;21687;48.900;9.188;2023-05-15T09:17:46;2.73;;;2.53;;
35578;SDS011;21687;48.900;9.188;2023-05-15T09:20:30;3.20;;;2.73;;
35578;SDS011;21687;48.900;9.188;2023-05-15T09:22:58;3.70;;;2.83;;
35578;SDS011;21687;48.900;9.188;2023-05-15T09:27:59;2.73;;;2.53;;
35578;SDS011;21687;48.900;9.188;2023-05-15T09:30:26;3.30;;;3.00;;
35578;SDS011;21687;48.900;9.188;2023-05-15T09:32:55;3.17;;;2.83;;
35578;SDS011;21687;48.900;9.188;2023-05-15T09:35:36;3.50;;;3.00;;
35578;SDS011;21687;48.900;9.188;2023-05-15T09:38:07;2.90;;;2.70;;
35578;SDS011;21687;48.900;9.188;2023-05-15T09:40:37;3.50;;;2.60;;
35578;SDS011;21687;48.900;9.188;2023-05-15T09:43:04;3.20;;;3.00;;
35578;SDS011;21687;48.900;9.188;2023-05-15T09:45:33;3.73;;;3.40;;
35578;SDS011;21687;48.900;9.188;2023-05-15T09:48:02;3.27;;;3.03;;
35578;SDS011;21687;48.900;9.188;2023-05-15T09:50:37;4.00;;;3.20;;
35578;SDS011;21687;48.900;9.188;2023-05-15T09:53:05;3.13;;;2.93;;
35578;SDS011;21687;48.900;9.188;2023-05-15T09:55:35;3.10;;;2.80;;
35578;SDS011;21687;48.900;9.188;2023-05-15T09:58:05;3.13;;;2.93;;
35578;SDS011;21687;48.900;9.188;2023-05-15T10:00:36;5.70;;;3.30;;
35578;SDS011;21687;48.900;9.188;2023-05-15T10:03:04;4.13;;;3.30;;
35578;SDS011;21687;48.900;9.188;2023-05-15T10:05:31;3.97;;;3.20;;
35578;SDS011;21687;48.900;9.188;2023-05-15T10:07:58;2.80;;;2.60;;
35578;SDS011;21687;48.900;9.188;2023-05-15T10:10:25;3.43;;;2.70;;
35578;SDS011;21687;48.900;9.188;2023-05-15T10:12:53;3.40;;;3.10;;
35578;SDS011;21687;48.900;9.188;2023-05-15T10:15:27;2.97;;;2.57;;
35578;SDS011;21687;48.900;9.188;2023-05-15T10:17:54;4.53;;;2.83;;
35578;SDS011;21687;48.900;9.188;2023-05-15T10:20:21;3.07;;;2.77;;
35578;SDS011;21687;48.900;9.188;2023-05-15T10:22:52;5.50;;;2.60;;
35578;SDS011;21687;48.900;9.188;2023-05-15T10:25:22;2.53;;;2.33;;
35578;SDS011;21687;48.900;9.188;2023-05-15T10:27:54;2.43;;;2.23;;
35578;SDS011;21687;48.900;9.188;2023-05-15T10:30:21;4.60;;;2.40;;
35578;SDS011;21687;48.900;9.188;2023-05-15T10:32:48;3.90;;;2.70;;
35578;SDS011;21687;48.900;9.188;2023-05-15T10:35:15;2.33;;;2.17;;
35578;SDS011;21687;48.900;9.188;2023-05-15T10:37:42;2.73;;;2.53;;
35578;SDS011;21687;48.900;9.188;2023-05-15T10:40:13;2.87;;;2.67;;
35578;SDS011;21687;48.900;9.188;2023-05-15T10:42:41;2.70;;;2.50;;
35578;SDS011;21687;48.900;9.188;2023-05-15T10:45:09;2.67;;;2.47;;
35578;SDS011;21687;48.900;9.188;2023-05-15T10:47:36;3.67;;;2.60;;
35578;SDS011;21687;48.900;9.188;2023-05-15T10:50:04;8.53;;;2.60;;
35578;SDS011;21687;48.900;9.188;2023-05-15T10:52:32;3.20;;;2.20;;
35578;SDS011;21687;48.900;9.188;2023-05-15T10:55:00;2.83;;;2.50;;
35578;SDS011;21687;48.900;9.188;2023-05-15T10:57:28;2.70;;;2.50;;
35578;SDS011;21687;48.900;9.188;2023-05-15T10:59:55;4.37;;;2.57;;
35578;SDS011;21687;48.900;9.188;2023-05-15T11:02:22;2.83;;;2.57;;
35578;SDS011;21687;48.900;9.188;2023-05-15T11:04:55;2.50;;;2.30;;
35578;SDS011;21687;48.900;9.188;2023-05-15T11:07:26;2.33;;;2.23;;
35578;SDS011;21687;48.900;9.188;2023-05-15T11:09:53;2.50;;;2.30;;
35578;SDS011;21687;48.900;9.188;2023-05-15T11:12:21;2.73;;;2.50;;
35578;SDS011;21687;48.900;9.188;2023-05-15T11:17:21;2.53;;;2.33;;
35578;SDS011;21687;48.900;9.188;2023-05-15T11:24:48;2.80;;;2.53;;
35578;SDS011;21687;48.900;9.188;2023-05-15T11:30:16;3.10;;;2.80;;
35578;SDS011;21687;48.900;9.188;2023-05-15T11:37:51;2.80;;;2.60;;
35578;SDS011;21687;48.900;9.188;2023-05-15T11:40:26;3.37;;;2.77;;
35578;SDS011;21687;48.900;9.188;2023-05-15T11:42:57;2.97;;;2.67;;
35578;SDS011;21687;48.900;9.188;2023-05-15T11:45:35;2.90;;;2.70;;
35578;SDS011;21687;48.900;9.188;2023-05-15T11:48:04;2.93;;;2.60;;
35578;SDS011;21687;48.900;9.188;2023-05-15T11:50:32;3.00;;;2.80;;
35578;SDS011;21687;48.900;9.188;2023-05-15T11:53:06;2.73;;;2.53;;
35578;SDS011;21687;48.900;9.188;2023-05-15T11:55:34;4.10;;;2.67;;
35578;SDS011;21687;48.900;9.188;2023-05-15T11:58:02;3.43;;;2.60;;
35578;SDS011;21687;48.900;9.188;2023-05-15T12:00:29;4.50;;;2.60;;
35578;SDS011;21687;48.900;9.188;2023-05-15T12:02:56;3.17;;;2.40;;
35578;SDS011;21687;48.900;9.188;2023-05-15T12:05:22;2.87;;;2.60;;
35578;SDS011;21687;48.900;9.188;2023-05-15T12:07:48;2.27;;;2.07;;
35578;SDS011;21687;48.900;9.188;2023-05-15T12:10:15;4.60;;;2.43;;
35578;SDS011;21687;48.900;9.188;2023-05-15T12:12:41;2.60;;;2.40;;
35578;SDS011;21687;48.900;9.188;2023-05-15T12:15:09;2.57;;;2.37;;
35578;SDS011;21687;48.900;9.188;2023-05-15T12:17:39;2.43;;;2.23;;
35578;SDS011;21687;48.900;9.188;2023-05-15T12:20:07;2.90;;;2.70;;
35578;SDS011;21687;48.900;9.188;2023-05-15T12:22:35;3.20;;;3.00;;
35578;SDS011;21687;48.900;9.188;2023-05-15T12:25:02;2.80;;;2.60;;
35578;SDS011;21687;48.900;9.188;2023-05-15T12:27:30;3.47;;;2.70;;
35578;SDS011;21687;48.900;9.188;2023-05-15T12:29:57;3.03;;;2.73;;
35578;SDS011;21687;48.900;9.188;2023-05-15T12:32:24;4.23;;;2.50;;
35578;SDS011;21687;48.900;9.188;2023-05-15T12:34:51;2.50;;;2.30;;
35578;SDS011;21687;48.900;9.188;2023-05-15T12:37:18;2.27;;;2.10;;
35578;SDS011;21687;48.900;9.188;2023-05-15T12:39:55;3.33;;;3.03;;
35578;SDS011;21687;48.900;9.188;2023-05-15T12:42:24;2.87;;;2.57;;
35578;SDS011;21687;48.900;9.188;2023-05-15T12:44:51;2.50;;;2.30;;
35578;SDS011;21687;48.900;9.188;2023-05-15T12:47:26;2.80;;;2.60;;
35578;SDS011;21687;48.900;9.188;2023-05-15T12:49:55;2.80;;;2.57;;
35578;SDS011;21687;48.900;9.188;2023-05-15T12:52:22;2.50;;;2.27;;
35578;SDS011;21687;48.900;9.188;2023-05-15T12:54:52;2.90;;;2.70;;
35578;SDS011;21687;48.900;9.188;2023-05-15T12:57:18;3.87;;;2.90;;
35578;SDS011;21687;48.900;9.188;2023-05-15T12:59:45;2.90;;;2.57;;
35578;SDS011;21687;48.900;9.188;2023-05-15T13:02:12;2.80;;;2.60;;
35578;SDS011;21687;48.900;9.188;2023-05-15T13:04:38;3.40;;;2.90;;
35578;SDS011;21687;48.900;9.188;2023-05-15T13:07:05;3.67;;;3.10;;
35578;SDS011;21687;48.900;9.188;2023-05-15T13:09:31;4.60;;;2.93;;
35578;SDS011;21687;48.900;9.188;2023-05-15T13:12:02;4.27;;;3.20;;
35578;SDS011;21687;48.900;9.188;2023-05-15T13:14:31;5.23;;;3.20;;
35578;SDS011;21687;48.900;9.188;2023-05-15T13:16:58;3.27;;;2.97;;
35578;SDS011;21687;48.900;9.188;2023-05-15T13:19:28;3.57;;;2.90;;
35578;SDS011;21687;48.900;9.188;2023-05-15T13:21:55;2.93;;;2.63;;
35578;SDS011;21687;48.900;9.188;2023-05-15T13:24:22;7.13;;;2.73;;
35578;SDS011;21687;48.900;9.188;2023-05-15T13:26:48;3.03;;;2.83;;
35578;SDS011;21687;48.900;9.188;2023-05-15T13:29:15;3.10;;;2.90;;
35578;SDS011;21687;48.900;9.188;2023-05-15T13:31:42;3.13;;;2.83;;
35578;SDS011;21687;48.900;9.188;2023-05-15T13:34:08;2.97;;;2.77;;
35578;SDS011;21687;48.900;9.188;2023-05-15T13:36:34;3.20;;;2.90;;
35578;SDS011;21687;48.900;9.188;2023-05-15T13:39:01;2.83;;;2.63;;
35578;SDS011;21687;48.900;9.188;2023-05-15T13:41:28;3.03;;;2.70;;
35578;SDS011;21687;48.900;9.188;2023-05-15T13:43:54;5.30;;;2.90;;
35578;SDS011;21687;48.900;9.188;2023-05-15T13:46:20;2.67;;;2.47;;
35578;SDS011;21687;48.900;9.188;2023-05-15T13:48:46;2.70;;;2.40;;
35578;SDS011;21687;48.900;9.188;2023-05-15T13:51:13;2.87;;;2.67;;
35578;SDS011;21687;48.900;9.188;2023-05-15T13:53:39;3.30;;;3.00;;
35578;SDS011;21687;48.900;9.188;2023-05-15T13:56:05;3.33;;;2.83;;
35578;SDS011;21687;48.900;9.188;2023-05-15T13:58:32;3.17;;;2.77;;
35578;SDS011;21687;48.900;9.188;2023-05-15T14:00:58;3.03;;;2.83;;
35578;SDS011;21687;48.900;9.188;2023-05-15T14:03:27;2.80;;;2.60;;
35578;SDS011;21687;48.900;9.188;2023-05-15T14:05:53;2.67;;;2.47;;
35578;SDS011;21687;48.900;9.188;2023-05-15T14:08:19;3.20;;;2.90;;
35578;SDS011;21687;48.900;9.188;2023-05-15T14:10:46;2.83;;;2.50;;
35578;SDS011;21687;48.900;9.188;2023-05-15T14:13:12;4.90;;;2.80;;
35578;SDS011;21687;48.900;9.188;2023-05-15T14:15:38;2.60;;;2.40;;
35578;SDS011;21687;48.900;9.188;2023-05-15T14:18:04;2.80;;;2.60;;
35578;SDS011;21687;48.900;9.188;2023-05-15T14:20:31;2.80;;;2.60;;
35578;SDS011;21687;48.900;9.188;2023-05-15T14:22:57;3.37;;;3.13;;
35578;SDS011;21687;48.900;9.188;2023-05-15T14:25:24;4.07;;;2.60;;
35578;SDS011;21687;48.900;9.188;2023-05-15T14:27:50;3.07;;;2.87;;
35578;SDS011;21687;48.900;9.188;2023-05-15T14:30:16;3.83;;;3.20;;
35578;SDS011;21687;48.900;9.188;2023-05-15T14:32:43;4.43;;;3.33;;
35578;SDS011;21687;48.900;9.188;2023-05-15T14:35:09;3.73;;;3.10;;
35578;SDS011;21687;48.900;9.188;2023-05-15T14:37:35;4.17;;;3.20;;
35578;SDS011;21687;48.900;9.188;2023-05-15T14:40:02;3.27;;;3.00;;
35578;SDS011;21687;48.900;9.188;2023-05-15T14:42:28;5.67;;;3.10;;
35578;SDS011;21687;48.900;9.188;2023-05-15T14:44:55;4.77;;;3.40;;
35578;SDS011;21687;48.900;9.188;2023-05-15T14:47:21;4.77;;;3.50;;
35578;SDS011;21687;48.900;9.188;2023-05-15T14:49:49;4.07;;;2.67;;
35578;SDS011;21687;48.900;9.188;2023-05-15T14:52:15;3.37;;;2.53;;
35578;SDS011;21687;48.900;9.188;2023-05-15T14:54:41;2.40;;;2.17;;
35578;SDS011;21687;48.900;9.188;2023-05-15T14:57:08;2.47;;;2.27;;
35578;SDS011;21687;48.900;9.188;2023-05-15T14:59:34;2.83;;;2.40;;
35578;SDS011;21687;48.900;9.188;2023-05-15T15:02:01;4.73;;;3.13;;
35578;SDS011;21687;48.900;9.188;2023-05-15T15:04:27;3.90;;;3.20;;
35578;SDS011;21687;48.900;9.188;2023-05-15T15:06:58;4.00;;;3.60;;
35578;SDS011;21687;48.900;9.188;2023-05-15T15:09:26;4.73;;;4.20;;
35578;SDS011;21687;48.900;9.188;2023-05-15T15:11:53;5.13;;;4.23;;
35578;SDS011;21687;48.900;9.188;2023-05-15T15:14:19;7.60;;;4.43;;